Time;durP1;ratioP1;P1;durP2;ratioP2;P2;SDS_P1;SDS_P2;PMS_P1;PMS_P2;Temp;Humidity;BMP_temperature;BMP_pressure;BME280_temperature;BME280_humidity;BME280_pressure;Samples;Min_cycle;Max_cycle;Signal;HPM_P1;HPM_P2
2023/04/28 00:02:02;;;;;;;14.82;6.90;;;;;;;;;;5061567;28;20770;-81
2023/04/28 00:04:30;;;;;;;11.63;6.60;;;;;;;;;;5055838;28;20411;-81
2023/04/28 00:07:03;;;;;;;13.07;6.57;;;;;;;;;;5058514;28;20417;-82
2023/04/28 00:09:32;;;;;;;12.70;6.90;;;;;;;;;;5059530;28;20409;-82
2023/04/28 00:12:00;;;;;;;13.70;6.75;;;;;;;;;;5059201;28;20441;-81
2023/04/28 00:14:33;;;;;;;14.23;6.90;;;;;;;;;;5059509;28;20423;-81
2023/04/28 00:17:02;;;;;;;13.02;6.95;;;;;;;;;;5055494;28;20783;-82
2023/04/28 00:19:29;;;;;;;17.38;7.13;;;;;;;;;;5056885;28;20450;-81
2023/04/28 00:21:57;;;;;;;14.25;7.00;;;;;;;;;;5059176;28;20489;-81
2023/04/28 00:24:25;;;;;;;14.30;7.60;;;;;;;;;;5061185;28;20405;-81
2023/04/28 00:27:00;;;;;;;14.32;6.72;;;;;;;;;;5057117;28;20434;-81
2023/04/28 00:29:32;;;;;;;12.75;7.05;;;;;;;;;;5060272;28;20435;-81
2023/04/28 00:32:00;;;;;;;15.13;7.37;;;;;;;;;;5056547;28;20421;-81
2023/04/28 00:34:29;;;;;;;15.27;7.22;;;;;;;;;;5058513;28;20428;-81
2023/04/28 00:36:57;;;;;;;13.88;7.05;;;;;;;;;;5065718;28;20439;-82
2023/04/28 00:39:30;;;;;;;15.07;7.28;;;;;;;;;;5072125;28;20428;-81
2023/04/28 00:42:04;;;;;;;16.17;7.47;;;;;;;;;;5058334;28;20425;-80
2023/04/28 00:44:32;;;;;;;15.30;6.85;;;;;;;;;;5056619;28;20886;-82
2023/04/28 00:47:04;;;;;;;15.00;7.18;;;;;;;;;;5060241;28;20432;-81
2023/04/28 00:49:37;;;;;;;14.52;6.90;;;;;;;;;;5056701;28;20418;-82
2023/04/28 00:52:06;;;;;;;15.02;7.47;;;;;;;;;;5064150;28;20429;-81
2023/04/28 00:54:39;;;;;;;13.40;7.10;;;;;;;;;;5058038;28;20429;-81
2023/04/28 00:57:09;;;;;;;15.60;7.50;;;;;;;;;;5054846;28;20443;-82
2023/04/28 00:59:42;;;;;;;14.82;7.38;;;;;;;;;;5065918;28;20425;-81
2023/04/28 01:02:17;;;;;;;14.00;7.00;;;;;;;;;;5059052;28;20891;-82
2023/04/28 01:04:45;;;;;;;14.13;7.28;;;;;;;;;;5064034;28;20409;-81
2023/04/28 01:07:14;;;;;;;15.70;7.38;;;;;;;;;;5053384;28;20413;-82
2023/04/28 01:09:47;;;;;;;14.70;7.60;;;;;;;;;;5062764;28;20425;-82
2023/04/28 01:12:26;;;;;;;14.27;7.28;;;;;;;;;;5058610;28;20412;-82
2023/04/28 01:14:59;;;;;;;16.10;7.33;;;;;;;;;;5043837;28;20461;-81
2023/04/28 01:17:28;;;;;;;13.32;7.28;;;;;;;;;;5058420;28;20426;-81
2023/04/28 01:20:03;;;;;;;14.27;7.45;;;;;;;;;;5056255;28;20782;-81
2023/04/28 01:22:36;;;;;;;14.33;7.17;;;;;;;;;;5066488;28;20427;-81
2023/04/28 01:25:05;;;;;;;12.38;6.88;;;;;;;;;;5064230;28;20456;-81
2023/04/28 01:27:33;;;;;;;14.17;7.40;;;;;;;;;;5057670;28;20825;-82
2023/04/28 01:30:01;;;;;;;14.00;7.15;;;;;;;;;;5057730;28;20422;-81
2023/04/28 01:32:29;;;;;;;13.63;7.13;;;;;;;;;;5058834;28;20897;-80
2023/04/28 01:34:57;;;;;;;13.25;6.85;;;;;;;;;;5057724;28;20408;-81
2023/04/28 01:37:25;;;;;;;16.63;6.95;;;;;;;;;;5060023;28;20432;-81
2023/04/28 01:39:54;;;;;;;15.57;7.33;;;;;;;;;;5059326;28;20429;-81
2023/04/28 01:42:28;;;;;;;13.25;6.88;;;;;;;;;;5060641;28;20931;-82
2023/04/28 01:45:02;;;;;;;14.00;6.88;;;;;;;;;;5073622;28;20419;-82
2023/04/28 01:47:30;;;;;;;13.90;7.20;;;;;;;;;;5058082;28;20466;-82
2023/04/28 01:50:02;;;;;;;15.73;7.00;;;;;;;;;;5057202;28;20506;-82
2023/04/28 01:52:30;;;;;;;14.68;6.90;;;;;;;;;;5058210;28;20431;-82
2023/04/28 01:54:58;;;;;;;14.18;7.25;;;;;;;;;;5058712;28;20423;-80
2023/04/28 01:57:34;;;;;;;15.57;6.90;;;;;;;;;;5057082;28;20440;-81
2023/04/28 02:00:02;;;;;;;13.60;6.88;;;;;;;;;;5056452;28;20423;-82
2023/04/28 02:02:32;;;;;;;15.55;7.10;;;;;;;;;;5056490;28;20421;-82
2023/04/28 02:05:05;;;;;;;14.68;7.53;;;;;;;;;;5065696;28;20431;-82
2023/04/28 02:07:40;;;;;;;13.32;6.80;;;;;;;;;;5057466;28;20434;-81
2023/04/28 02:10:12;;;;;;;13.50;7.15;;;;;;;;;;5056731;28;20436;-82
2023/04/28 02:12:46;;;;;;;13.82;7.00;;;;;;;;;;5060663;28;20429;-82
2023/04/28 02:15:19;;;;;;;14.80;7.10;;;;;;;;;;5060845;28;20429;-82
2023/04/28 02:17:53;;;;;;;12.77;7.13;;;;;;;;;;5056419;28;20427;-81
2023/04/28 02:20:26;;;;;;;12.50;6.53;;;;;;;;;;5058819;28;20419;-82
2023/04/28 02:22:59;;;;;;;14.63;7.13;;;;;;;;;;5054125;28;20429;-81
2023/04/28 02:25:32;;;;;;;16.15;6.88;;;;;;;;;;5056914;28;20426;-81
2023/04/28 02:28:02;;;;;;;14.43;7.35;;;;;;;;;;5057437;28;20481;-82
2023/04/28 02:30:29;;;;;;;13.40;7.22;;;;;;;;;;5063907;28;20423;-81
2023/04/28 02:32:57;;;;;;;13.63;6.80;;;;;;;;;;5056465;28;20405;-82
2023/04/28 02:35:25;;;;;;;14.32;6.97;;;;;;;;;;5049970;28;20423;-81
2023/04/28 02:37:53;;;;;;;14.50;7.40;;;;;;;;;;5057978;28;20424;-82
2023/04/28 02:40:21;;;;;;;13.93;6.88;;;;;;;;;;5059085;28;20429;-82
2023/04/28 02:42:49;;;;;;;13.00;6.40;;;;;;;;;;5056791;28;20423;-81
2023/04/28 02:45:18;;;;;;;13.27;6.60;;;;;;;;;;5056974;28;20425;-81
2023/04/28 02:47:51;;;;;;;12.90;6.72;;;;;;;;;;5056323;28;20438;-81
2023/04/28 02:50:18;;;;;;;12.98;7.03;;;;;;;;;;5058233;28;20429;-81
2023/04/28 02:52:51;;;;;;;14.63;7.35;;;;;;;;;;5060118;28;20408;-82
2023/04/28 02:55:24;;;;;;;12.77;6.57;;;;;;;;;;5064154;28;20429;-81
2023/04/28 02:57:53;;;;;;;13.88;7.40;;;;;;;;;;5065898;28;20417;-82
2023/04/28 03:00:27;;;;;;;13.63;7.45;;;;;;;;;;5074839;28;20432;-81
2023/04/28 03:03:00;;;;;;;14.10;7.15;;;;;;;;;;5057497;28;20417;-81
2023/04/28 03:05:28;;;;;;;14.18;7.72;;;;;;;;;;5058765;28;20425;-81
2023/04/28 03:07:56;;;;;;;15.38;6.97;;;;;;;;;;5062627;28;20440;-81
2023/04/28 03:10:29;;;;;;;17.25;7.30;;;;;;;;;;5062521;28;20423;-80
2023/04/28 03:13:03;;;;;;;16.63;7.53;;;;;;;;;;5060067;28;20423;-81
2023/04/28 03:15:37;;;;;;;14.27;7.72;;;;;;;;;;5059555;28;20427;-81
2023/04/28 03:18:05;;;;;;;13.23;7.22;;;;;;;;;;5062368;28;20411;-81
2023/04/28 03:20:38;;;;;;;16.25;7.63;;;;;;;;;;5074737;28;20427;-82
2023/04/28 03:23:06;;;;;;;16.80;7.68;;;;;;;;;;5058505;28;20858;-81
2023/04/28 03:25:35;;;;;;;13.10;6.80;;;;;;;;;;5059246;28;20418;-81
2023/04/28 03:28:09;;;;;;;14.17;6.80;;;;;;;;;;5044000;28;20425;-82
2023/04/28 03:30:38;;;;;;;13.48;6.65;;;;;;;;;;5059764;28;20910;-81
2023/04/28 03:33:11;;;;;;;13.38;6.50;;;;;;;;;;5058498;28;20429;-81
2023/04/28 03:35:39;;;;;;;14.68;7.03;;;;;;;;;;5058978;28;20421;-80
2023/04/28 03:38:11;;;;;;;13.00;6.70;;;;;;;;;;5058635;28;20780;-81
2023/04/28 03:40:44;;;;;;;12.10;6.25;;;;;;;;;;5060991;28;20421;-80
2023/04/28 03:43:36;;;;;;;14.27;6.82;;;;;;;;;;5067610;28;20431;-82
2023/04/28 03:46:15;;;;;;;13.13;6.63;;;;;;;;;;5069029;28;20419;-81
2023/04/28 03:48:47;;;;;;;13.38;6.68;;;;;;;;;;5056820;28;20440;-81
2023/04/28 03:51:16;;;;;;;13.82;6.63;;;;;;;;;;5057794;28;20432;-81
2023/04/28 03:53:49;;;;;;;13.65;6.53;;;;;;;;;;5058636;28;20436;-81
2023/04/28 03:56:17;;;;;;;16.33;6.45;;;;;;;;;;5068206;28;20463;-81
2023/04/28 03:58:50;;;;;;;12.35;6.50;;;;;;;;;;5059802;28;20430;-81
2023/04/28 04:01:24;;;;;;;12.50;6.77;;;;;;;;;;5054593;28;20437;-81
2023/04/28 04:03:52;;;;;;;12.18;6.22;;;;;;;;;;5059100;28;20427;-81
2023/04/28 04:06:24;;;;;;;11.98;6.47;;;;;;;;;;5055979;28;20432;-82
2023/04/28 04:08:52;;;;;;;19.08;6.53;;;;;;;;;;5060121;28;20417;-81
2023/04/28 04:11:21;;;;;;;13.70;6.53;;;;;;;;;;5063205;28;20427;-81
2023/04/28 04:13:54;;;;;;;13.48;6.40;;;;;;;;;;5067305;28;20432;-81
2023/04/28 04:16:25;;;;;;;13.48;6.38;;;;;;;;;;5067930;28;20915;-81
2023/04/28 04:18:55;;;;;;;14.32;6.30;;;;;;;;;;5056214;28;20425;-82
2023/04/28 04:21:30;;;;;;;13.32;5.78;;;;;;;;;;5060559;28;20436;-81
2023/04/28 04:24:03;;;;;;;14.48;6.50;;;;;;;;;;5060211;28;20430;-81
2023/04/28 04:26:36;;;;;;;13.13;6.10;;;;;;;;;;5059228;28;20429;-81
2023/04/28 04:29:35;;;;;;;12.13;6.15;;;;;;;;;;5055995;28;20452;-81
2023/04/28 04:32:13;;;;;;;11.15;5.97;;;;;;;;;;5065213;28;20812;-81
2023/04/28 04:34:46;;;;;;;10.93;5.60;;;;;;;;;;5058371;28;20912;-81
2023/04/28 04:37:14;;;;;;;11.55;5.75;;;;;;;;;;5058872;28;20417;-81
2023/04/28 04:39:48;;;;;;;13.85;6.13;;;;;;;;;;5066741;28;20421;-80
2023/04/28 04:42:16;;;;;;;10.75;5.57;;;;;;;;;;5066444;28;20414;-81
2023/04/28 04:44:57;;;;;;;11.00;5.70;;;;;;;;;;5063675;28;20429;-81
2023/04/28 04:47:32;;;;;;;11.32;5.32;;;;;;;;;;5058278;28;20946;-81
2023/04/28 04:50:00;;;;;;;11.65;5.43;;;;;;;;;;5057785;28;20932;-80
2023/04/28 04:52:28;;;;;;;11.40;5.47;;;;;;;;;;5070955;28;20446;-80
2023/04/28 04:55:02;;;;;;;10.82;5.10;;;;;;;;;;5060827;28;20436;-80
2023/04/28 04:57:34;;;;;;;10.88;5.00;;;;;;;;;;5057807;28;20421;-80
2023/04/28 05:00:28;;;;;;;10.93;5.40;;;;;;;;;;5055108;28;20747;-81
2023/04/28 05:02:57;;;;;;;10.45;5.47;;;;;;;;;;5052877;28;20492;-81
2023/04/28 05:05:30;;;;;;;10.70;5.30;;;;;;;;;;5056443;28;20428;-80
2023/04/28 05:08:07;;;;;;;9.98;4.38;;;;;;;;;;5070654;28;20918;-81
2023/04/28 05:10:35;;;;;;;11.00;4.63;;;;;;;;;;5061766;28;20426;-81
2023/04/28 05:13:04;;;;;;;8.15;4.00;;;;;;;;;;5057316;28;20430;-81
2023/04/28 05:15:37;;;;;;;7.97;3.80;;;;;;;;;;5057938;28;20415;-81
2023/04/28 05:18:23;;;;;;;6.93;3.70;;;;;;;;;;5056790;28;20460;-82
2023/04/28 05:20:51;;;;;;;8.68;3.78;;;;;;;;;;5054980;28;20425;-82
2023/04/28 05:23:19;;;;;;;9.48;4.15;;;;;;;;;;5052313;28;20771;-82
2023/04/28 05:25:52;;;;;;;7.03;3.60;;;;;;;;;;5053464;28;20425;-83
2023/04/28 05:28:20;;;;;;;6.90;3.50;;;;;;;;;;5062831;28;20436;-83
2023/04/28 05:30:49;;;;;;;8.25;3.90;;;;;;;;;;5056271;28;20442;-83
2023/04/28 05:33:23;;;;;;;10.20;3.95;;;;;;;;;;5057362;28;20919;-82
2023/04/28 05:35:56;;;;;;;9.20;4.20;;;;;;;;;;5057095;28;20995;-82
2023/04/28 05:38:24;;;;;;;7.53;3.97;;;;;;;;;;5054361;28;20425;-81
2023/04/28 05:40:58;;;;;;;8.18;4.03;;;;;;;;;;5069089;28;20415;-83
2023/04/28 05:43:26;;;;;;;9.10;4.03;;;;;;;;;;5065136;28;20436;-82
2023/04/28 05:45:54;;;;;;;7.28;3.88;;;;;;;;;;5055506;28;20427;-83
2023/04/28 05:48:22;;;;;;;8.68;4.00;;;;;;;;;;5063742;28;20417;-82
2023/04/28 05:50:56;;;;;;;7.50;3.60;;;;;;;;;;5063279;28;20448;-81
2023/04/28 05:53:24;;;;;;;8.13;3.70;;;;;;;;;;5069817;28;20524;-82
2023/04/28 05:55:57;;;;;;;9.57;4.20;;;;;;;;;;5061298;28;20426;-82
2023/04/28 05:58:32;;;;;;;8.52;4.10;;;;;;;;;;5056811;28;20933;-83
2023/04/28 06:01:00;;;;;;;8.43;3.88;;;;;;;;;;5057095;28;20784;-83
2023/04/28 06:03:27;;;;;;;8.07;3.40;;;;;;;;;;5055540;28;20440;-82
2023/04/28 06:06:02;;;;;;;9.57;3.70;;;;;;;;;;5057481;28;20442;-83
2023/04/28 06:08:35;;;;;;;7.55;3.40;;;;;;;;;;5057696;28;20420;-82
2023/04/28 06:11:04;;;;;;;7.05;3.30;;;;;;;;;;5055823;28;20425;-82
2023/04/28 06:13:39;;;;;;;7.28;3.30;;;;;;;;;;5057782;28;20426;-82
2023/04/28 06:16:10;;;;;;;7.93;3.22;;;;;;;;;;5055780;28;20418;-83
2023/04/28 06:18:43;;;;;;;6.90;2.97;;;;;;;;;;5063504;28;20799;-83
2023/04/28 06:21:12;;;;;;;8.80;3.10;;;;;;;;;;5058795;28;20424;-83
2023/04/28 06:23:41;;;;;;;9.75;3.10;;;;;;;;;;5065585;28;20451;-82
2023/04/28 06:26:09;;;;;;;7.55;2.83;;;;;;;;;;5070983;28;20450;-83
2023/04/28 06:28:39;;;;;;;6.95;2.75;;;;;;;;;;5069989;28;20904;-83
2023/04/28 06:31:08;;;;;;;6.05;2.88;;;;;;;;;;5063226;28;20405;-83
2023/04/28 06:33:41;;;;;;;5.68;2.63;;;;;;;;;;5059250;28;20437;-82
2023/04/28 06:36:16;;;;;;;5.75;2.70;;;;;;;;;;5060776;28;20763;-85
2023/04/28 06:38:50;;;;;;;8.55;2.80;;;;;;;;;;5056993;28;20941;-82
2023/04/28 06:41:23;;;;;;;7.40;2.70;;;;;;;;;;5060917;28;20959;-82
2023/04/28 06:43:52;;;;;;;8.55;2.80;;;;;;;;;;5056422;28;20427;-84
2023/04/28 06:46:27;;;;;;;6.30;3.00;;;;;;;;;;5060541;28;20417;-82
2023/04/28 06:48:55;;;;;;;7.53;2.80;;;;;;;;;;5062608;28;20509;-83
2023/04/28 06:51:29;;;;;;;7.47;2.53;;;;;;;;;;5059162;28;20425;-81
2023/04/28 06:53:56;;;;;;;5.30;2.58;;;;;;;;;;5058192;28;20427;-81
2023/04/28 06:56:25;;;;;;;7.07;2.72;;;;;;;;;;5062161;28;20440;-82
2023/04/28 06:58:57;;;;;;;6.38;2.65;;;;;;;;;;5059344;28;21221;-82
2023/04/28 07:01:30;;;;;;;7.93;2.85;;;;;;;;;;5060144;28;20433;-84
2023/04/28 07:03:58;;;;;;;6.10;2.40;;;;;;;;;;5059136;28;20433;-80
2023/04/28 07:06:32;;;;;;;5.95;2.40;;;;;;;;;;5058906;28;20821;-81
2023/04/28 07:09:00;;;;;;;7.50;2.58;;;;;;;;;;5066311;28;20435;-80
2023/04/28 07:11:28;;;;;;;5.63;2.40;;;;;;;;;;5054553;28;20425;-81
2023/04/28 07:14:01;;;;;;;6.28;2.80;;;;;;;;;;5059076;28;20788;-80
2023/04/28 07:16:28;;;;;;;5.40;2.28;;;;;;;;;;5063018;28;20444;-81
2023/04/28 07:19:01;;;;;;;6.28;2.40;;;;;;;;;;5058910;28;20428;-81
2023/04/28 07:21:35;;;;;;;5.90;2.50;;;;;;;;;;5056283;28;20919;-82
2023/04/28 07:24:08;;;;;;;6.07;2.10;;;;;;;;;;5057037;28;20444;-80
2023/04/28 07:26:36;;;;;;;6.13;2.63;;;;;;;;;;5056057;28;20427;-81
2023/04/28 07:29:07;;;;;;;5.88;2.40;;;;;;;;;;5055123;28;20440;-82
2023/04/28 07:31:35;;;;;;;7.90;2.50;;;;;;;;;;5058065;28;20623;-81
2023/04/28 07:34:03;;;;;;;5.47;2.40;;;;;;;;;;5058121;28;21088;-85
2023/04/28 07:36:37;;;;;;;6.20;2.13;;;;;;;;;;5062608;28;20530;-81
2023/04/28 07:39:05;;;;;;;8.02;2.25;;;;;;;;;;5039377;28;20427;-81
2023/04/28 07:41:36;;;;;;;6.95;2.60;;;;;;;;;;5043308;28;20434;-80
2023/04/28 07:44:04;;;;;;;4.95;2.25;;;;;;;;;;5035374;28;20958;-81
2023/04/28 07:46:32;;;;;;;6.72;2.20;;;;;;;;;;5040008;28;20435;-82
2023/04/28 07:49:05;;;;;;;7.60;2.50;;;;;;;;;;5041934;28;20425;-80
2023/04/28 07:51:32;;;;;;;7.60;2.70;;;;;;;;;;5041955;28;20470;-83
2023/04/28 07:54:01;;;;;;;6.63;2.75;;;;;;;;;;5045085;28;21085;-81
2023/04/28 07:56:34;;;;;;;7.63;2.80;;;;;;;;;;5037552;28;20443;-80
2023/04/28 07:59:08;;;;;;;4.80;2.30;;;;;;;;;;5042121;28;20442;-81
2023/04/28 08:01:41;;;;;;;6.15;2.50;;;;;;;;;;5039044;28;20427;-82
2023/04/28 08:04:10;;;;;;;7.07;2.22;;;;;;;;;;5048970;28;20429;-84
2023/04/28 08:06:42;;;;;;;6.18;2.50;;;;;;;;;;5043284;28;20420;-81
2023/04/28 08:09:12;;;;;;;7.20;2.63;;;;;;;;;;5037660;28;20438;-83
2023/04/28 08:11:44;;;;;;;8.18;2.67;;;;;;;;;;5036566;28;20420;-82
2023/04/28 08:14:17;;;;;;;6.15;2.60;;;;;;;;;;5043652;28;20423;-81
2023/04/28 08:16:46;;;;;;;7.57;2.70;;;;;;;;;;5041354;28;20427;-81
2023/04/28 08:19:14;;;;;;;7.75;2.72;;;;;;;;;;5040039;28;20431;-80
2023/04/28 08:21:46;;;;;;;7.25;2.72;;;;;;;;;;5039416;28;20885;-82
2023/04/28 08:24:15;;;;;;;7.13;2.70;;;;;;;;;;5038918;28;20859;-81
2023/04/28 08:26:48;;;;;;;8.37;3.20;;;;;;;;;;5041301;28;20432;-82
2023/04/28 08:29:16;;;;;;;9.03;2.70;;;;;;;;;;5048222;28;20524;-83
2023/04/28 08:31:49;;;;;;;7.63;2.60;;;;;;;;;;5040634;28;20787;-81
2023/04/28 08:34:17;;;;;;;6.80;2.88;;;;;;;;;;5033832;28;20423;-80
2023/04/28 08:36:45;;;;;;;8.23;3.00;;;;;;;;;;5040105;28;20895;-82
2023/04/28 08:39:12;;;;;;;5.77;2.80;;;;;;;;;;5045251;28;20884;-82
2023/04/28 08:41:41;;;;;;;6.93;2.53;;;;;;;;;;5043815;28;20427;-82
2023/04/28 08:44:10;;;;;;;7.05;2.85;;;;;;;;;;5046075;28;20425;-81
2023/04/28 08:46:40;;;;;;;7.50;2.80;;;;;;;;;;5042547;28;20803;-81
2023/04/28 08:49:12;;;;;;;8.00;3.00;;;;;;;;;;5043581;28;20435;-82
2023/04/28 08:51:46;;;;;;;6.68;2.78;;;;;;;;;;5040057;28;20439;-80
2023/04/28 08:54:19;;;;;;;6.82;2.72;;;;;;;;;;5037744;28;20427;-79
2023/04/28 08:56:49;;;;;;;5.43;2.72;;;;;;;;;;5040206;28;20843;-81
2023/04/28 08:59:22;;;;;;;6.82;2.70;;;;;;;;;;5047592;28;20820;-80
2023/04/28 09:01:50;;;;;;;7.80;2.90;;;;;;;;;;5040039;28;20435;-80
2023/04/28 09:04:18;;;;;;;7.40;3.15;;;;;;;;;;5039048;28;20434;-82
2023/04/28 09:06:51;;;;;;;7.50;3.47;;;;;;;;;;5042924;28;20427;-80
2023/04/28 09:09:22;;;;;;;6.78;3.05;;;;;;;;;;5041740;28;21089;-80
2023/04/28 09:11:58;;;;;;;8.70;3.55;;;;;;;;;;5036533;28;20431;-79
2023/04/28 09:14:31;;;;;;;6.82;2.90;;;;;;;;;;5043671;28;20431;-80
2023/04/28 09:17:09;;;;;;;7.25;3.25;;;;;;;;;;5042034;28;20524;-81
2023/04/28 09:19:38;;;;;;;8.75;3.70;;;;;;;;;;5039859;28;20432;-82
2023/04/28 09:22:11;;;;;;;7.35;3.25;;;;;;;;;;5050675;28;20431;-81
2023/04/28 09:24:45;;;;;;;5.72;3.13;;;;;;;;;;5056849;28;20419;-84
2023/04/28 09:27:14;;;;;;;9.57;3.45;;;;;;;;;;5056538;28;20419;-83
2023/04/28 09:29:51;;;;;;;7.30;3.10;;;;;;;;;;5054035;28;20904;-82
2023/04/28 09:32:26;;;;;;;7.43;3.23;;;;;;;;;;5057002;28;20491;-81
2023/04/28 09:34:55;;;;;;;8.90;3.15;;;;;;;;;;5055338;28;20439;-81
2023/04/28 09:37:24;;;;;;;7.30;3.10;;;;;;;;;;5054460;28;20426;-80
2023/04/28 09:39:53;;;;;;;7.13;3.00;;;;;;;;;;5059175;28;20886;-82
2023/04/28 09:42:35;;;;;;;6.72;3.40;;;;;;;;;;5057629;28;20888;-81
2023/04/28 09:45:09;;;;;;;7.10;3.28;;;;;;;;;;5055705;28;20432;-82
2023/04/28 09:47:43;;;;;;;6.37;3.20;;;;;;;;;;5058298;28;20791;-80
2023/04/28 09:50:17;;;;;;;7.85;3.17;;;;;;;;;;5056354;28;20921;-84
2023/04/28 09:52:56;;;;;;;8.13;3.35;;;;;;;;;;5063846;28;20421;-83
2023/04/28 09:55:24;;;;;;;7.78;3.50;;;;;;;;;;5051406;28;20432;-82
2023/04/28 09:57:54;;;;;;;8.60;3.05;;;;;;;;;;5055668;28;20417;-81
2023/04/28 10:00:27;;;;;;;6.83;3.03;;;;;;;;;;5058410;28;20428;-83
2023/04/28 10:03:00;;;;;;;7.63;3.22;;;;;;;;;;5056374;28;20429;-83
2023/04/28 10:05:28;;;;;;;7.32;3.00;;;;;;;;;;5060746;28;20431;-84
2023/04/28 10:07:57;;;;;;;8.25;3.08;;;;;;;;;;5059074;28;20427;-85
2023/04/28 10:10:26;;;;;;;7.88;2.92;;;;;;;;;;5043169;28;20926;-81
2023/04/28 10:12:56;;;;;;;8.27;3.03;;;;;;;;;;5044086;28;20436;-81
2023/04/28 10:15:23;;;;;;;8.30;3.47;;;;;;;;;;5041680;28;20774;-84
2023/04/28 10:17:51;;;;;;;6.07;3.10;;;;;;;;;;5043142;28;20436;-81
2023/04/28 10:20:21;;;;;;;7.45;3.15;;;;;;;;;;5043066;28;20419;-82
2023/04/28 10:22:59;;;;;;;7.53;3.20;;;;;;;;;;5038848;28;21072;-81
2023/04/28 10:25:34;;;;;;;9.00;3.20;;;;;;;;;;5037696;28;20417;-80
2023/04/28 10:28:09;;;;;;;7.23;3.03;;;;;;;;;;5044953;28;21234;-83
2023/04/28 10:30:42;;;;;;;6.53;3.10;;;;;;;;;;5045633;28;20427;-81
2023/04/28 10:33:28;;;;;;;6.57;3.00;;;;;;;;;;5040881;28;20423;-79
2023/04/28 10:35:56;;;;;;;9.73;3.40;;;;;;;;;;5039164;28;20432;-81
2023/04/28 10:38:23;;;;;;;7.95;3.45;;;;;;;;;;5040041;28;20415;-81
2023/04/28 10:41:01;;;;;;;7.45;3.22;;;;;;;;;;5039586;28;21165;-80
2023/04/28 10:43:38;;;;;;;7.38;3.20;;;;;;;;;;5046656;28;20452;-81
2023/04/28 10:46:07;;;;;;;6.68;3.20;;;;;;;;;;5046145;28;20427;-81
2023/04/28 10:49:05;;;;;;;7.07;3.60;;;;;;;;;;5045829;28;20915;-81
2023/04/28 10:51:34;;;;;;;6.55;3.47;;;;;;;;;;5039984;28;20435;-81
2023/04/28 10:54:07;;;;;;;8.55;3.20;;;;;;;;;;5041137;28;20454;-80
2023/04/28 10:56:42;;;;;;;8.65;3.35;;;;;;;;;;5051082;28;20416;-83
2023/04/28 10:59:27;;;;;;;6.95;3.05;;;;;;;;;;5046636;28;20427;-81
2023/04/28 11:02:14;;;;;;;9.35;3.53;;;;;;;;;;5042588;28;20446;-81
2023/04/28 11:04:57;;;;;;;8.00;3.40;;;;;;;;;;5034813;28;20923;-81
2023/04/28 11:07:25;;;;;;;8.48;3.70;;;;;;;;;;5042064;28;20458;-80
2023/04/28 11:09:53;;;;;;;7.88;3.50;;;;;;;;;;5043254;28;20427;-82
2023/04/28 11:12:26;;;;;;;7.05;3.50;;;;;;;;;;5041209;28;20790;-83
2023/04/28 11:14:55;;;;;;;8.00;3.45;;;;;;;;;;5039293;28;20411;-80
2023/04/28 11:17:34;;;;;;;9.30;3.67;;;;;;;;;;5045508;28;20407;-81
2023/04/28 11:20:05;;;;;;;7.10;3.40;;;;;;;;;;5055916;28;21110;-80
2023/04/28 11:22:38;;;;;;;6.20;3.08;;;;;;;;;;5051328;28;20436;-82
2023/04/28 11:25:07;;;;;;;9.30;3.58;;;;;;;;;;5042526;28;20423;-81
2023/04/28 11:27:40;;;;;;;6.75;3.58;;;;;;;;;;5048233;28;20933;-80
2023/04/28 11:30:21;;;;;;;8.38;3.92;;;;;;;;;;5047681;28;20994;-81
2023/04/28 11:32:57;;;;;;;6.85;3.55;;;;;;;;;;5049035;28;20436;-82
2023/04/28 11:35:40;;;;;;;7.05;3.78;;;;;;;;;;5043484;28;20457;-80
2023/04/28 11:38:08;;;;;;;9.40;3.65;;;;;;;;;;5042227;28;20435;-84
2023/04/28 11:40:55;;;;;;;6.78;3.53;;;;;;;;;;5051339;28;20423;-81
2023/04/28 11:43:29;;;;;;;8.10;3.40;;;;;;;;;;5041463;28;20427;-81
2023/04/28 11:46:04;;;;;;;11.77;3.88;;;;;;;;;;5047059;28;20813;-83
2023/04/28 11:48:31;;;;;;;8.63;3.80;;;;;;;;;;5042803;28;20761;-79
2023/04/28 11:50:59;;;;;;;8.25;3.38;;;;;;;;;;5037884;28;20438;-81
2023/04/28 11:53:41;;;;;;;7.40;3.60;;;;;;;;;;5040170;28;20431;-80
2023/04/28 11:56:10;;;;;;;7.70;3.70;;;;;;;;;;5035164;28;20431;-80
2023/04/28 11:58:38;;;;;;;8.20;3.80;;;;;;;;;;5036453;28;20787;-80
2023/04/28 12:01:08;;;;;;;7.60;3.78;;;;;;;;;;5038101;28;20431;-80
2023/04/28 12:03:42;;;;;;;7.88;3.75;;;;;;;;;;5044017;28;20426;-79
2023/04/28 12:06:17;;;;;;;8.33;3.97;;;;;;;;;;5040624;28;20420;-81
2023/04/28 12:08:45;;;;;;;10.60;3.95;;;;;;;;;;5034182;28;21073;-78
2023/04/28 12:11:13;;;;;;;7.38;4.15;;;;;;;;;;5053311;28;20435;-77
2023/04/28 12:14:01;;;;;;;7.88;4.05;;;;;;;;;;5043077;28;20425;-79
2023/04/28 12:16:42;;;;;;;9.45;4.03;;;;;;;;;;5040778;28;20427;-78
2023/04/28 12:19:11;;;;;;;8.70;4.00;;;;;;;;;;5041250;28;20780;-76
2023/04/28 12:21:44;;;;;;;11.60;4.20;;;;;;;;;;5042303;28;20427;-78
2023/04/28 12:24:18;;;;;;;8.43;3.90;;;;;;;;;;5034949;28;21240;-78
2023/04/28 12:26:46;;;;;;;9.20;4.15;;;;;;;;;;5045063;28;20423;-81
2023/04/28 12:29:33;;;;;;;9.38;4.13;;;;;;;;;;5044662;28;20435;-78
2023/04/28 12:32:08;;;;;;;9.10;4.23;;;;;;;;;;5043220;28;20432;-79
2023/04/28 12:34:42;;;;;;;7.90;4.03;;;;;;;;;;5036220;28;20420;-79
2023/04/28 12:37:15;;;;;;;9.00;4.20;;;;;;;;;;5043154;28;20496;-78
2023/04/28 12:39:43;;;;;;;10.40;5.47;;;;;;;;;;5039329;28;20428;-76
2023/04/28 12:42:11;;;;;;;9.35;4.60;;;;;;;;;;5035704;28;20444;-79
2023/04/28 12:44:39;;;;;;;9.25;4.43;;;;;;;;;;5033204;28;20541;-77
2023/04/28 12:47:09;;;;;;;10.63;4.50;;;;;;;;;;5040183;28;20435;-77
2023/04/28 12:49:37;;;;;;;8.45;4.40;;;;;;;;;;5041329;28;20453;-77
2023/04/28 12:52:05;;;;;;;9.73;4.72;;;;;;;;;;5041669;28;20428;-80
2023/04/28 12:54:33;;;;;;;10.20;5.10;;;;;;;;;;5039872;28;20442;-79
2023/04/28 12:57:02;;;;;;;12.73;5.22;;;;;;;;;;5037774;28;20898;-79
2023/04/28 12:59:30;;;;;;;13.13;6.03;;;;;;;;;;5039448;28;20432;-79
2023/04/28 13:01:58;;;;;;;12.68;5.65;;;;;;;;;;5044420;28;21111;-79
2023/04/28 13:04:32;;;;;;;7.65;4.38;;;;;;;;;;5037599;28;20788;-79
2023/04/28 13:07:06;;;;;;;10.15;4.68;;;;;;;;;;5035287;28;20428;-79
2023/04/28 13:09:34;;;;;;;11.90;4.40;;;;;;;;;;5041090;28;20415;-79
2023/04/28 13:12:06;;;;;;;10.18;4.50;;;;;;;;;;5041523;28;20457;-83
2023/04/28 13:14:39;;;;;;;11.68;4.55;;;;;;;;;;5051123;28;20411;-79
2023/04/28 13:17:12;;;;;;;9.63;4.53;;;;;;;;;;5042554;28;20542;-79
2023/04/28 13:19:46;;;;;;;10.68;5.22;;;;;;;;;;5038253;28;20434;-80
2023/04/28 13:22:20;;;;;;;11.75;5.00;;;;;;;;;;5034999;28;21853;-80
2023/04/28 13:24:48;;;;;;;13.77;4.90;;;;;;;;;;5037926;28;20438;-82
2023/04/28 13:27:16;;;;;;;8.30;4.72;;;;;;;;;;5034994;28;21077;-80
2023/04/28 13:29:44;;;;;;;8.97;4.63;;;;;;;;;;5041059;28;20432;-80
2023/04/28 13:32:12;;;;;;;9.23;4.75;;;;;;;;;;5025026;28;20428;-81
2023/04/28 13:34:46;;;;;;;10.95;4.57;;;;;;;;;;5041043;28;20854;-80
2023/04/28 13:37:19;;;;;;;10.35;5.50;;;;;;;;;;5037937;28;20415;-79
2023/04/28 13:39:48;;;;;;;11.50;5.75;;;;;;;;;;5042213;28;20430;-79
2023/04/28 13:42:21;;;;;;;12.57;5.28;;;;;;;;;;5035999;28;20435;-83
2023/04/28 13:44:50;;;;;;;11.55;5.35;;;;;;;;;;5040254;28;20950;-81
2023/04/28 13:47:19;;;;;;;11.35;5.22;;;;;;;;;;5031473;28;20439;-84
2023/04/28 13:49:49;;;;;;;11.43;5.38;;;;;;;;;;5034552;28;20417;-83
2023/04/28 13:52:24;;;;;;;12.02;6.15;;;;;;;;;;5044055;28;20751;-81
2023/04/28 13:54:53;;;;;;;11.32;5.22;;;;;;;;;;5038701;28;20416;-84
2023/04/28 13:57:22;;;;;;;9.48;4.88;;;;;;;;;;5034109;28;20776;-83
2023/04/28 13:59:50;;;;;;;10.43;4.82;;;;;;;;;;5035905;28;20443;-82
2023/04/28 14:02:23;;;;;;;9.27;5.10;;;;;;;;;;5042138;28;20436;-81
2023/04/28 14:04:52;;;;;;;9.70;5.40;;;;;;;;;;5040333;28;20427;-82
2023/04/28 14:07:25;;;;;;;10.73;5.13;;;;;;;;;;5040567;28;20423;-83
2023/04/28 14:09:53;;;;;;;10.52;5.57;;;;;;;;;;5028185;28;20428;-81
2023/04/28 14:12:20;;;;;;;11.73;5.97;;;;;;;;;;5036867;28;20827;-81
2023/04/28 14:14:48;;;;;;;11.48;5.50;;;;;;;;;;5037908;28;20442;-82
2023/04/28 14:17:16;;;;;;;10.30;5.03;;;;;;;;;;5057354;28;20424;-82
2023/04/28 14:19:44;;;;;;;12.20;5.65;;;;;;;;;;5035009;28;20427;-80
2023/04/28 14:22:18;;;;;;;11.95;5.43;;;;;;;;;;5033668;28;20435;-83
2023/04/28 14:24:51;;;;;;;10.88;5.00;;;;;;;;;;5040233;28;20438;-83
2023/04/28 14:27:19;;;;;;;10.45;5.32;;;;;;;;;;5034708;28;20446;-82
2023/04/28 14:29:49;;;;;;;10.00;5.07;;;;;;;;;;5036665;28;20423;-84
2023/04/28 14:32:19;;;;;;;10.02;5.75;;;;;;;;;;5034098;28;20453;-83
2023/04/28 14:34:52;;;;;;;9.82;5.22;;;;;;;;;;5036128;28;20424;-80
2023/04/28 14:37:21;;;;;;;9.90;5.15;;;;;;;;;;5041602;28;20438;-83
2023/04/28 14:39:54;;;;;;;10.93;5.15;;;;;;;;;;5039358;28;20435;-81
2023/04/28 14:42:28;;;;;;;10.18;5.50;;;;;;;;;;5039536;28;20926;-82
2023/04/28 14:45:01;;;;;;;10.48;5.45;;;;;;;;;;5034967;28;20561;-82
2023/04/28 14:47:29;;;;;;;11.57;5.65;;;;;;;;;;5043052;28;20430;-80
2023/04/28 14:49:57;;;;;;;11.15;5.55;;;;;;;;;;5041464;28;20444;-81
2023/04/28 14:52:27;;;;;;;11.25;5.53;;;;;;;;;;5042381;28;20411;-82
2023/04/28 14:54:56;;;;;;;10.85;5.45;;;;;;;;;;5041037;28;20421;-83
2023/04/28 14:57:24;;;;;;;10.25;5.10;;;;;;;;;;5040332;28;20424;-83
2023/04/28 14:59:57;;;;;;;12.00;5.43;;;;;;;;;;5042729;28;20446;-81
2023/04/28 15:02:30;;;;;;;10.82;5.40;;;;;;;;;;5048136;28;20438;-83